Portada
METAR-TAF:

METAR-TAF

Aeroports :

Indianàpolis, Indiana, Estats Units d'Amèrica

latitud: 39-43-30N, longitud: 086-16-55W, altitud: 243 m

Observació

L'informe es va fer fa 54 minuts, a les 14:54 UTC
Vent 7 kt del Nord/Nord-Oest
Temperatura 11°C
Humitat 54%
Pressió 1024 hPa
Visibilitat: 16.1 km
Cel clar

METAR: KIND 231454Z 33007KT 10SM CLR 11/02 A3024 RMK AO2 SLP239 T01110022 51024

Hora: 11:48 (15:48 UTC)

Pronòstic

L'informe es va fer fa 1 hora i 24 minuts, a les 14:24 UTC
Pronòstic vàlid del 23 a les 14 UTC al 24 a les 18 UTC
Vent 10 kt del Nord-Oest
Visibilitat: 10 km
Escasses núvols a una alçada de 25000 ft
A partir de les 24 a les 0200 UTC
Vent 6 kt del Nord
Visibilitat: 10 km
Cel clar

TAF: KIND 231424Z 2314/2418 32010KT P6SM FEW250 FM240200 01006KT P6SM SKC

Observacions i pronòstics meteorològics de més de 4000 aeroports (METAR i TAF).

Les estacions disponibles són els punts grocs i vermells al mapa.

Posi el ratolí al punt desitjat per veure el nom de l'estació.

Feu clic per veure les observacions i els pronòstics meteorològics.

Per canviar el mapa: feu clic els botons verds amb una creu de color negre per apropar; al botó verd amb un guió per allunyar la imatge; o en les fletxes verdes per a mapes adjacents.


METAR-TAF: